sensor_id;sensor_type;location;lat;lon;timestamp;pressure;altitude;pressure_sealevel;temperature;humidity
33506;BME280;19843;51.040;13.782;2023-08-06T00:00:51;99553.91;;;17.57;100.00
33506;BME280;19843;51.040;13.782;2023-08-06T00:03:19;99554.28;;;17.62;100.00
33506;BME280;19843;51.040;13.782;2023-08-06T00:05:46;99539.34;;;17.69;100.00
33506;BME280;19843;51.040;13.782;2023-08-06T00:08:14;99531.66;;;17.70;100.00
33506;BME280;19843;51.040;13.782;2023-08-06T00:10:43;99523.31;;;17.37;100.00
33506;BME280;19843;51.040;13.782;2023-08-06T00:13:11;99520.06;;;17.53;100.00
33506;BME280;19843;51.040;13.782;2023-08-06T00:15:38;99520.50;;;17.48;100.00
33506;BME280;19843;51.040;13.782;2023-08-06T00:18:06;99512.06;;;17.30;100.00
33506;BME280;19843;51.040;13.782;2023-08-06T00:20:33;99510.06;;;17.34;100.00
33506;BME280;19843;51.040;13.782;2023-08-06T00:23:01;99504.41;;;17.34;100.00
33506;BME280;19843;51.040;13.782;2023-08-06T00:25:29;99501.59;;;17.31;100.00
33506;BME280;19843;51.040;13.782;2023-08-06T00:27:58;99502.09;;;17.04;100.00
33506;BME280;19843;51.040;13.782;2023-08-06T00:30:25;99512.50;;;17.25;100.00
33506;BME280;19843;51.040;13.782;2023-08-06T00:32:53;99510.84;;;17.31;100.00
33506;BME280;19843;51.040;13.782;2023-08-06T00:35:20;99512.41;;;17.47;100.00
33506;BME280;19843;51.040;13.782;2023-08-06T00:37:48;99515.66;;;17.41;100.00
33506;BME280;19843;51.040;13.782;2023-08-06T00:40:16;99505.16;;;17.53;100.00
33506;BME280;19843;51.040;13.782;2023-08-06T00:42:43;99499.09;;;17.54;100.00
33506;BME280;19843;51.040;13.782;2023-08-06T00:45:13;99495.06;;;17.52;100.00
33506;BME280;19843;51.040;13.782;2023-08-06T00:47:41;99495.94;;;17.38;100.00
33506;BME280;19843;51.040;13.782;2023-08-06T00:50:10;99493.09;;;17.41;100.00
33506;BME280;19843;51.040;13.782;2023-08-06T00:52:37;99494.72;;;17.43;100.00
33506;BME280;19843;51.040;13.782;2023-08-06T00:55:06;99490.25;;;17.45;100.00
33506;BME280;19843;51.040;13.782;2023-08-06T00:57:34;99487.84;;;17.47;100.00
33506;BME280;19843;51.040;13.782;2023-08-06T01:00:02;99476.31;;;17.02;100.00
33506;BME280;19843;51.040;13.782;2023-08-06T01:02:32;99478.31;;;17.05;100.00
33506;BME280;19843;51.040;13.782;2023-08-06T01:05:00;99471.88;;;17.05;100.00
33506;BME280;19843;51.040;13.782;2023-08-06T01:07:42;99478.38;;;16.59;100.00
33506;BME280;19843;51.040;13.782;2023-08-06T01:10:24;99460.59;;;16.98;100.00
33506;BME280;19843;51.040;13.782;2023-08-06T01:13:02;99463.47;;;16.91;100.00
33506;BME280;19843;51.040;13.782;2023-08-06T01:15:35;99457.41;;;16.85;100.00
33506;BME280;19843;51.040;13.782;2023-08-06T01:18:07;99450.13;;;16.98;100.00
33506;BME280;19843;51.040;13.782;2023-08-06T01:20:36;99455.78;;;16.95;100.00
33506;BME280;19843;51.040;13.782;2023-08-06T01:23:03;99448.13;;;16.99;100.00
33506;BME280;19843;51.040;13.782;2023-08-06T01:25:34;99444.44;;;17.16;100.00
33506;BME280;19843;51.040;13.782;2023-08-06T01:28:10;99442.03;;;17.11;100.00
33506;BME280;19843;51.040;13.782;2023-08-06T01:30:40;99428.00;;;16.89;100.00
33506;BME280;19843;51.040;13.782;2023-08-06T01:33:12;99424.81;;;16.84;100.00
33506;BME280;19843;51.040;13.782;2023-08-06T01:35:44;99432.09;;;16.38;100.00
33506;BME280;19843;51.040;13.782;2023-08-06T01:38:12;99422.44;;;16.32;100.00
33506;BME280;19843;51.040;13.782;2023-08-06T01:40:39;99426.88;;;16.44;100.00
33506;BME280;19843;51.040;13.782;2023-08-06T01:43:07;99426.03;;;16.47;100.00
33506;BME280;19843;51.040;13.782;2023-08-06T01:45:34;99422.47;;;16.29;100.00
33506;BME280;19843;51.040;13.782;2023-08-06T01:48:02;99424.88;;;16.34;100.00
33506;BME280;19843;51.040;13.782;2023-08-06T01:50:30;99421.22;;;16.58;100.00
33506;BME280;19843;51.040;13.782;2023-08-06T01:52:59;99421.59;;;16.60;100.00
33506;BME280;19843;51.040;13.782;2023-08-06T01:55:26;99416.34;;;16.91;100.00
33506;BME280;19843;51.040;13.782;2023-08-06T01:57:56;99431.25;;;16.70;100.00
33506;BME280;19843;51.040;13.782;2023-08-06T02:00:23;99423.25;;;16.36;100.00
33506;BME280;19843;51.040;13.782;2023-08-06T02:02:51;99420.81;;;16.42;100.00
33506;BME280;19843;51.040;13.782;2023-08-06T02:05:18;99426.81;;;16.87;100.00
33506;BME280;19843;51.040;13.782;2023-08-06T02:07:46;99412.25;;;16.99;100.00
33506;BME280;19843;51.040;13.782;2023-08-06T02:10:15;99421.91;;;17.09;100.00
33506;BME280;19843;51.040;13.782;2023-08-06T02:12:42;99435.56;;;17.18;100.00
33506;BME280;19843;51.040;13.782;2023-08-06T02:15:10;99434.34;;;17.22;100.00
33506;BME280;19843;51.040;13.782;2023-08-06T02:17:37;99438.75;;;17.27;100.00
33506;BME280;19843;51.040;13.782;2023-08-06T02:20:06;99432.69;;;17.35;100.00
33506;BME280;19843;51.040;13.782;2023-08-06T02:22:34;99428.19;;;17.41;100.00
33506;BME280;19843;51.040;13.782;2023-08-06T02:25:01;99425.00;;;17.39;100.00
33506;BME280;19843;51.040;13.782;2023-08-06T02:27:30;99418.50;;;17.46;100.00
33506;BME280;19843;51.040;13.782;2023-08-06T02:29:58;99416.91;;;17.41;100.00
33506;BME280;19843;51.040;13.782;2023-08-06T02:32:25;99415.34;;;17.37;100.00
33506;BME280;19843;51.040;13.782;2023-08-06T02:34:53;99414.53;;;17.40;100.00
33506;BME280;19843;51.040;13.782;2023-08-06T02:37:20;99421.09;;;17.12;100.00
33506;BME280;19843;51.040;13.782;2023-08-06T02:39:49;99408.69;;;16.95;100.00
33506;BME280;19843;51.040;13.782;2023-08-06T02:42:16;99408.31;;;16.64;100.00
33506;BME280;19843;51.040;13.782;2023-08-06T02:44:45;99401.03;;;16.96;100.00
33506;BME280;19843;51.040;13.782;2023-08-06T02:47:13;99401.78;;;17.07;100.00
33506;BME280;19843;51.040;13.782;2023-08-06T02:49:40;99394.47;;;17.17;100.00
33506;BME280;19843;51.040;13.782;2023-08-06T02:52:08;99392.81;;;17.33;100.00
33506;BME280;19843;51.040;13.782;2023-08-06T02:54:35;99391.56;;;17.38;100.00
33506;BME280;19843;51.040;13.782;2023-08-06T02:57:03;99396.78;;;17.43;100.00
33506;BME280;19843;51.040;13.782;2023-08-06T02:59:31;99391.19;;;17.32;100.00
33506;BME280;19843;51.040;13.782;2023-08-06T03:02:00;99393.41;;;16.78;100.00
33506;BME280;19843;51.040;13.782;2023-08-06T03:04:28;99386.97;;;16.81;100.00
33506;BME280;19843;51.040;13.782;2023-08-06T03:06:55;99386.25;;;16.31;100.00
33506;BME280;19843;51.040;13.782;2023-08-06T03:09:23;99379.41;;;16.18;100.00
33506;BME280;19843;51.040;13.782;2023-08-06T03:11:51;99381.81;;;16.33;100.00
33506;BME280;19843;51.040;13.782;2023-08-06T03:14:19;99374.53;;;16.47;100.00
33506;BME280;19843;51.040;13.782;2023-08-06T03:16:46;99370.44;;;16.83;100.00
33506;BME280;19843;51.040;13.782;2023-08-06T03:19:15;99369.72;;;16.33;100.00
33506;BME280;19843;51.040;13.782;2023-08-06T03:21:42;99361.69;;;16.35;100.00
33506;BME280;19843;51.040;13.782;2023-08-06T03:24:10;99367.25;;;16.67;100.00
33506;BME280;19843;51.040;13.782;2023-08-06T03:26:37;99355.56;;;16.86;100.00
33506;BME280;19843;51.040;13.782;2023-08-06T03:29:05;99355.50;;;16.97;100.00
33506;BME280;19843;51.040;13.782;2023-08-06T03:31:33;99347.41;;;17.10;100.00
33506;BME280;19843;51.040;13.782;2023-08-06T03:34:01;99344.94;;;17.15;100.00
33506;BME280;19843;51.040;13.782;2023-08-06T03:36:29;99344.88;;;17.26;100.00
33506;BME280;19843;51.040;13.782;2023-08-06T03:38:57;99338.22;;;16.84;100.00
33506;BME280;19843;51.040;13.782;2023-08-06T03:41:24;99338.28;;;16.56;100.00
33506;BME280;19843;51.040;13.782;2023-08-06T03:43:52;99339.44;;;16.83;100.00
33506;BME280;19843;51.040;13.782;2023-08-06T03:46:19;99336.97;;;17.00;100.00
33506;BME280;19843;51.040;13.782;2023-08-06T03:48:47;99334.09;;;17.10;100.00
33506;BME280;19843;51.040;13.782;2023-08-06T03:51:14;99323.59;;;17.14;100.00
33506;BME280;19843;51.040;13.782;2023-08-06T03:53:43;99328.41;;;17.18;100.00
33506;BME280;19843;51.040;13.782;2023-08-06T03:56:11;99320.72;;;17.25;100.00
33506;BME280;19843;51.040;13.782;2023-08-06T03:58:38;99315.97;;;17.11;100.00
33506;BME280;19843;51.040;13.782;2023-08-06T04:01:06;99317.13;;;17.18;100.00
33506;BME280;19843;51.040;13.782;2023-08-06T04:03:34;99314.38;;;17.03;100.00
33506;BME280;19843;51.040;13.782;2023-08-06T04:06:02;99305.84;;;17.18;100.00
33506;BME280;19843;51.040;13.782;2023-08-06T04:08:30;99298.34;;;16.89;100.00
33506;BME280;19843;51.040;13.782;2023-08-06T04:10:59;99301.16;;;16.89;100.00
33506;BME280;19843;51.040;13.782;2023-08-06T04:13:27;99296.81;;;16.74;100.00
33506;BME280;19843;51.040;13.782;2023-08-06T04:15:54;99292.75;;;16.86;100.00
33506;BME280;19843;51.040;13.782;2023-08-06T04:18:22;99288.34;;;16.81;100.00
33506;BME280;19843;51.040;13.782;2023-08-06T04:20:51;99293.19;;;16.77;100.00
33506;BME280;19843;51.040;13.782;2023-08-06T04:23:21;99286.31;;;16.85;100.00
33506;BME280;19843;51.040;13.782;2023-08-06T04:25:49;99285.41;;;17.03;100.00
33506;BME280;19843;51.040;13.782;2023-08-06T04:28:18;99290.78;;;16.72;100.00
33506;BME280;19843;51.040;13.782;2023-08-06T04:30:46;99286.25;;;17.00;100.00
33506;BME280;19843;51.040;13.782;2023-08-06T04:33:14;99282.91;;;17.15;100.00
33506;BME280;19843;51.040;13.782;2023-08-06T04:35:41;99271.63;;;17.15;100.00
33506;BME280;19843;51.040;13.782;2023-08-06T04:38:09;99279.38;;;17.04;100.00
33506;BME280;19843;51.040;13.782;2023-08-06T04:40:36;99270.41;;;17.20;100.00
33506;BME280;19843;51.040;13.782;2023-08-06T04:43:04;99276.06;;;17.13;100.00
33506;BME280;19843;51.040;13.782;2023-08-06T04:45:33;99263.41;;;16.76;100.00
33506;BME280;19843;51.040;13.782;2023-08-06T04:48:00;99273.47;;;16.74;100.00
33506;BME280;19843;51.040;13.782;2023-08-06T04:50:28;99269.25;;;17.07;100.00
33506;BME280;19843;51.040;13.782;2023-08-06T04:52:55;99266.78;;;17.16;100.00
33506;BME280;19843;51.040;13.782;2023-08-06T04:55:23;99266.38;;;17.18;100.00
33506;BME280;19843;51.040;13.782;2023-08-06T04:57:50;99261.50;;;17.25;100.00
33506;BME280;19843;51.040;13.782;2023-08-06T05:00:18;99260.69;;;17.28;100.00
33506;BME280;19843;51.040;13.782;2023-08-06T05:02:47;99259.44;;;17.33;100.00
33506;BME280;19843;51.040;13.782;2023-08-06T05:05:14;99254.53;;;16.74;100.00
33506;BME280;19843;51.040;13.782;2023-08-06T05:07:42;99257.81;;;16.58;100.00
33506;BME280;19843;51.040;13.782;2023-08-06T05:10:10;99255.31;;;16.85;100.00
33506;BME280;19843;51.040;13.782;2023-08-06T05:12:37;99252.19;;;16.51;100.00
33506;BME280;19843;51.040;13.782;2023-08-06T05:15:05;99250.94;;;16.74;100.00
33506;BME280;19843;51.040;13.782;2023-08-06T05:17:33;99248.19;;;16.49;100.00
33506;BME280;19843;51.040;13.782;2023-08-06T05:20:03;99251.41;;;16.47;100.00
33506;BME280;19843;51.040;13.782;2023-08-06T05:22:31;99243.66;;;16.69;100.00
33506;BME280;19843;51.040;13.782;2023-08-06T05:24:58;99245.72;;;16.72;100.00
33506;BME280;19843;51.040;13.782;2023-08-06T05:27:26;99240.19;;;16.40;100.00
33506;BME280;19843;51.040;13.782;2023-08-06T05:29:54;99239.75;;;16.45;100.00
33506;BME280;19843;51.040;13.782;2023-08-06T05:32:22;99234.28;;;16.97;100.00
33506;BME280;19843;51.040;13.782;2023-08-06T05:34:50;99232.06;;;17.26;100.00
33506;BME280;19843;51.040;13.782;2023-08-06T05:37:19;99224.41;;;17.27;100.00
33506;BME280;19843;51.040;13.782;2023-08-06T05:39:46;99233.41;;;17.07;100.00
33506;BME280;19843;51.040;13.782;2023-08-06T05:42:14;99221.94;;;17.36;100.00
33506;BME280;19843;51.040;13.782;2023-08-06T05:44:41;99223.00;;;17.53;100.00
33506;BME280;19843;51.040;13.782;2023-08-06T05:47:09;99222.72;;;17.36;100.00
33506;BME280;19843;51.040;13.782;2023-08-06T05:49:36;99226.59;;;17.57;100.00
33506;BME280;19843;51.040;13.782;2023-08-06T05:52:05;99227.50;;;16.87;100.00
33506;BME280;19843;51.040;13.782;2023-08-06T05:54:36;99223.25;;;17.24;100.00
33506;BME280;19843;51.040;13.782;2023-08-06T05:57:04;99226.25;;;16.96;100.00
33506;BME280;19843;51.040;13.782;2023-08-06T05:59:32;99224.13;;;17.14;100.00
33506;BME280;19843;51.040;13.782;2023-08-06T06:01:59;99223.69;;;17.19;100.00
33506;BME280;19843;51.040;13.782;2023-08-06T06:04:27;99230.34;;;16.84;100.00
33506;BME280;19843;51.040;13.782;2023-08-06T06:06:55;99232.59;;;17.14;100.00
33506;BME280;19843;51.040;13.782;2023-08-06T06:09:23;99238.78;;;16.87;100.00
33506;BME280;19843;51.040;13.782;2023-08-06T06:11:52;99228.66;;;16.94;100.00
33506;BME280;19843;51.040;13.782;2023-08-06T06:14:20;99230.66;;;17.00;100.00
33506;BME280;19843;51.040;13.782;2023-08-06T06:16:47;99227.84;;;17.00;100.00
33506;BME280;19843;51.040;13.782;2023-08-06T06:19:15;99223.47;;;16.85;100.00
33506;BME280;19843;51.040;13.782;2023-08-06T06:21:42;99225.84;;;17.53;100.00
33506;BME280;19843;51.040;13.782;2023-08-06T06:24:10;99228.59;;;17.56;100.00
33506;BME280;19843;51.040;13.782;2023-08-06T06:26:37;99230.78;;;17.38;100.00
33506;BME280;19843;51.040;13.782;2023-08-06T06:29:06;99223.25;;;17.69;100.00
33506;BME280;19843;51.040;13.782;2023-08-06T06:31:34;99218.72;;;17.82;100.00
33506;BME280;19843;51.040;13.782;2023-08-06T06:34:01;99220.31;;;17.83;100.00
33506;BME280;19843;51.040;13.782;2023-08-06T06:36:29;99215.09;;;17.82;100.00
33506;BME280;19843;51.040;13.782;2023-08-06T06:38:56;99212.66;;;17.35;100.00
33506;BME280;19843;51.040;13.782;2023-08-06T06:41:24;99213.28;;;17.57;100.00
33506;BME280;19843;51.040;13.782;2023-08-06T06:43:52;99224.19;;;17.52;100.00
33506;BME280;19843;51.040;13.782;2023-08-06T06:46:21;99214.66;;;17.87;100.00
33506;BME280;19843;51.040;13.782;2023-08-06T06:48:49;99222.34;;;17.83;100.00
33506;BME280;19843;51.040;13.782;2023-08-06T06:51:16;99221.88;;;17.43;100.00
33506;BME280;19843;51.040;13.782;2023-08-06T06:53:44;99229.28;;;17.75;100.00
33506;BME280;19843;51.040;13.782;2023-08-06T06:56:11;99228.66;;;17.49;100.00
33506;BME280;19843;51.040;13.782;2023-08-06T06:58:39;99232.25;;;17.57;100.00
33506;BME280;19843;51.040;13.782;2023-08-06T07:01:07;99236.56;;;17.69;100.00
33506;BME280;19843;51.040;13.782;2023-08-06T07:03:37;99232.25;;;17.57;100.00
33506;BME280;19843;51.040;13.782;2023-08-06T07:06:06;99231.69;;;17.76;100.00
33506;BME280;19843;51.040;13.782;2023-08-06T07:08:34;99234.13;;;18.15;100.00
33506;BME280;19843;51.040;13.782;2023-08-06T07:11:04;99228.31;;;18.60;100.00
33506;BME280;19843;51.040;13.782;2023-08-06T07:13:32;99236.13;;;18.49;100.00
33506;BME280;19843;51.040;13.782;2023-08-06T07:16:00;99238.59;;;17.68;100.00
33506;BME280;19843;51.040;13.782;2023-08-06T07:18:28;99234.41;;;18.25;100.00
33506;BME280;19843;51.040;13.782;2023-08-06T07:20:57;99233.63;;;18.24;100.00
33506;BME280;19843;51.040;13.782;2023-08-06T07:23:25;99235.16;;;18.63;100.00
33506;BME280;19843;51.040;13.782;2023-08-06T07:25:53;99243.66;;;18.29;100.00
33506;BME280;19843;51.040;13.782;2023-08-06T07:28:21;99232.91;;;18.13;100.00
33506;BME280;19843;51.040;13.782;2023-08-06T07:30:48;99231.41;;;18.05;100.00
33506;BME280;19843;51.040;13.782;2023-08-06T07:33:16;99230.66;;;17.97;100.00
33506;BME280;19843;51.040;13.782;2023-08-06T07:35:44;99231.94;;;17.92;100.00
33506;BME280;19843;51.040;13.782;2023-08-06T07:38:12;99231.34;;;18.08;100.00
33506;BME280;19843;51.040;13.782;2023-08-06T07:40:40;99226.47;;;18.47;100.00
33506;BME280;19843;51.040;13.782;2023-08-06T07:43:08;99233.66;;;18.21;100.00
33506;BME280;19843;51.040;13.782;2023-08-06T07:45:36;99212.38;;;18.77;100.00
33506;BME280;19843;51.040;13.782;2023-08-06T07:48:06;99216.69;;;18.55;100.00
33506;BME280;19843;51.040;13.782;2023-08-06T07:50:34;99214.34;;;18.50;100.00
33506;BME280;19843;51.040;13.782;2023-08-06T07:53:01;99205.97;;;18.73;100.00
33506;BME280;19843;51.040;13.782;2023-08-06T07:55:33;99211.34;;;18.95;100.00
33506;BME280;19843;51.040;13.782;2023-08-06T07:58:01;99220.25;;;18.28;100.00
33506;BME280;19843;51.040;13.782;2023-08-06T08:00:28;99218.56;;;18.00;100.00
33506;BME280;19843;51.040;13.782;2023-08-06T08:02:56;99221.53;;;17.86;100.00
33506;BME280;19843;51.040;13.782;2023-08-06T08:05:24;99219.38;;;17.97;100.00
33506;BME280;19843;51.040;13.782;2023-08-06T08:07:51;99210.22;;;18.24;100.00
33506;BME280;19843;51.040;13.782;2023-08-06T08:10:19;99210.88;;;18.69;100.00
33506;BME280;19843;51.040;13.782;2023-08-06T08:12:48;99204.91;;;18.60;100.00
33506;BME280;19843;51.040;13.782;2023-08-06T08:15:15;99203.63;;;18.00;100.00
33506;BME280;19843;51.040;13.782;2023-08-06T08:17:43;99200.69;;;18.45;100.00
33506;BME280;19843;51.040;13.782;2023-08-06T08:20:11;99191.09;;;18.65;100.00
33506;BME280;19843;51.040;13.782;2023-08-06T08:22:38;99201.50;;;18.07;100.00
33506;BME280;19843;51.040;13.782;2023-08-06T08:25:06;99194.06;;;17.90;100.00
33506;BME280;19843;51.040;13.782;2023-08-06T08:27:34;99187.75;;;18.78;100.00
33506;BME280;19843;51.040;13.782;2023-08-06T08:30:04;99191.22;;;18.89;99.79
33506;BME280;19843;51.040;13.782;2023-08-06T08:32:31;99190.75;;;18.63;100.00
33506;BME280;19843;51.040;13.782;2023-08-06T08:34:59;99186.19;;;17.67;100.00
33506;BME280;19843;51.040;13.782;2023-08-06T08:37:27;99179.66;;;18.46;100.00
33506;BME280;19843;51.040;13.782;2023-08-06T08:39:54;99179.38;;;18.02;100.00
33506;BME280;19843;51.040;13.782;2023-08-06T08:42:22;99174.63;;;17.96;100.00
33506;BME280;19843;51.040;13.782;2023-08-06T08:44:52;99179.03;;;18.00;100.00
33506;BME280;19843;51.040;13.782;2023-08-06T08:47:22;99167.56;;;17.80;100.00
33506;BME280;19843;51.040;13.782;2023-08-06T08:49:52;99171.84;;;17.92;100.00
33506;BME280;19843;51.040;13.782;2023-08-06T08:52:22;99157.13;;;18.42;100.00
33506;BME280;19843;51.040;13.782;2023-08-06T08:54:50;99164.47;;;18.36;100.00
33506;BME280;19843;51.040;13.782;2023-08-06T08:57:19;99153.69;;;18.58;100.00
33506;BME280;19843;51.040;13.782;2023-08-06T08:59:48;99146.47;;;18.53;99.59
33506;BME280;19843;51.040;13.782;2023-08-06T09:02:16;99154.69;;;18.44;100.00
33506;BME280;19843;51.040;13.782;2023-08-06T09:04:46;99146.03;;;18.85;98.19
33506;BME280;19843;51.040;13.782;2023-08-06T09:07:18;99152.97;;;18.50;100.00
33506;BME280;19843;51.040;13.782;2023-08-06T09:09:48;99148.47;;;18.83;96.33
33506;BME280;19843;51.040;13.782;2023-08-06T09:12:17;99156.81;;;18.02;97.13
33506;BME280;19843;51.040;13.782;2023-08-06T09:14:44;99146.59;;;18.12;100.00
33506;BME280;19843;51.040;13.782;2023-08-06T09:17:12;99153.19;;;18.32;99.95
33506;BME280;19843;51.040;13.782;2023-08-06T09:19:41;99157.56;;;18.06;99.71
33506;BME280;19843;51.040;13.782;2023-08-06T09:22:13;99152.97;;;18.50;98.27
33506;BME280;19843;51.040;13.782;2023-08-06T09:24:41;99156.66;;;17.79;100.00
33506;BME280;19843;51.040;13.782;2023-08-06T09:27:11;99145.78;;;18.15;100.00
33506;BME280;19843;51.040;13.782;2023-08-06T09:29:43;99148.84;;;18.28;100.00
33506;BME280;19843;51.040;13.782;2023-08-06T09:32:12;99155.09;;;17.71;100.00
33506;BME280;19843;51.040;13.782;2023-08-06T09:34:42;99152.09;;;17.92;100.00
33506;BME280;19843;51.040;13.782;2023-08-06T09:37:10;99144.22;;;18.72;98.90
33506;BME280;19843;51.040;13.782;2023-08-06T09:39:39;99143.88;;;18.93;97.21
33506;BME280;19843;51.040;13.782;2023-08-06T09:42:07;99149.09;;;18.71;96.41
33506;BME280;19843;51.040;13.782;2023-08-06T09:44:35;99147.03;;;17.76;100.00
33506;BME280;19843;51.040;13.782;2023-08-06T09:47:03;99146.06;;;18.24;100.00
33506;BME280;19843;51.040;13.782;2023-08-06T09:49:40;99144.34;;;18.61;99.73
33506;BME280;19843;51.040;13.782;2023-08-06T09:52:13;99133.88;;;18.88;98.74
33506;BME280;19843;51.040;13.782;2023-08-06T09:54:43;99132.41;;;18.80;97.86
33506;BME280;19843;51.040;13.782;2023-08-06T09:57:12;99131.69;;;18.73;99.68
33506;BME280;19843;51.040;13.782;2023-08-06T09:59:41;99123.47;;;18.51;98.70
33506;BME280;19843;51.040;13.782;2023-08-06T10:02:12;99126.81;;;19.00;97.76
33506;BME280;19843;51.040;13.782;2023-08-06T10:04:43;99124.50;;;18.64;97.85
33506;BME280;19843;51.040;13.782;2023-08-06T10:07:21;99123.91;;;18.80;96.52
33506;BME280;19843;51.040;13.782;2023-08-06T10:09:51;99126.44;;;19.45;95.22
33506;BME280;19843;51.040;13.782;2023-08-06T10:12:19;99121.47;;;19.53;94.52
33506;BME280;19843;51.040;13.782;2023-08-06T10:14:48;99111.50;;;18.43;95.94
33506;BME280;19843;51.040;13.782;2023-08-06T10:17:17;99116.06;;;18.91;92.30
33506;BME280;19843;51.040;13.782;2023-08-06T10:19:45;99116.44;;;19.40;92.52
33506;BME280;19843;51.040;13.782;2023-08-06T10:22:14;99125.00;;;18.59;94.71
33506;BME280;19843;51.040;13.782;2023-08-06T10:24:47;99109.38;;;19.05;94.40
33506;BME280;19843;51.040;13.782;2023-08-06T10:27:21;99109.38;;;19.05;94.41
33506;BME280;19843;51.040;13.782;2023-08-06T10:29:49;99103.81;;;18.98;96.03
33506;BME280;19843;51.040;13.782;2023-08-06T10:32:17;99105.06;;;19.21;91.86
33506;BME280;19843;51.040;13.782;2023-08-06T10:34:56;99096.66;;;20.04;86.18
33506;BME280;19843;51.040;13.782;2023-08-06T10:37:34;99094.22;;;19.62;92.11
33506;BME280;19843;51.040;13.782;2023-08-06T10:40:03;99081.97;;;19.45;95.37
33506;BME280;19843;51.040;13.782;2023-08-06T10:42:35;99082.31;;;20.11;88.35
33506;BME280;19843;51.040;13.782;2023-08-06T10:45:11;99080.22;;;19.08;92.00
33506;BME280;19843;51.040;13.782;2023-08-06T10:47:39;99073.63;;;19.62;92.45
33506;BME280;19843;51.040;13.782;2023-08-06T10:50:12;99068.81;;;19.99;87.13
33506;BME280;19843;51.040;13.782;2023-08-06T10:52:40;99071.59;;;20.38;86.23
33506;BME280;19843;51.040;13.782;2023-08-06T10:55:08;99069.09;;;20.60;85.38
33506;BME280;19843;51.040;13.782;2023-08-06T10:57:37;99063.56;;;20.37;87.81
33506;BME280;19843;51.040;13.782;2023-08-06T11:00:07;99056.28;;;20.72;81.79
33506;BME280;19843;51.040;13.782;2023-08-06T11:02:42;99051.47;;;20.69;82.83
33506;BME280;19843;51.040;13.782;2023-08-06T11:05:11;99058.66;;;20.90;81.73
33506;BME280;19843;51.040;13.782;2023-08-06T11:07:38;99051.31;;;20.76;82.74
33506;BME280;19843;51.040;13.782;2023-08-06T11:10:07;99053.22;;;20.27;87.25
33506;BME280;19843;51.040;13.782;2023-08-06T11:12:35;99046.94;;;19.59;91.17
33506;BME280;19843;51.040;13.782;2023-08-06T11:15:05;99037.41;;;20.65;85.92
33506;BME280;19843;51.040;13.782;2023-08-06T11:17:34;99048.19;;;20.54;85.42
33506;BME280;19843;51.040;13.782;2023-08-06T11:20:02;99043.06;;;20.65;80.86
33506;BME280;19843;51.040;13.782;2023-08-06T11:22:31;99046.25;;;20.67;80.21
33506;BME280;19843;51.040;13.782;2023-08-06T11:24:58;99044.25;;;20.12;80.60
33506;BME280;19843;51.040;13.782;2023-08-06T11:27:27;99033.50;;;19.67;84.54
33506;BME280;19843;51.040;13.782;2023-08-06T11:29:55;99036.22;;;20.10;81.81
33506;BME280;19843;51.040;13.782;2023-08-06T11:32:24;99041.22;;;20.91;80.80
33506;BME280;19843;51.040;13.782;2023-08-06T11:34:53;99035.47;;;21.40;78.24
33506;BME280;19843;51.040;13.782;2023-08-06T11:37:22;99041.19;;;21.08;77.79
33506;BME280;19843;51.040;13.782;2023-08-06T11:39:51;99038.88;;;21.03;80.76
33506;BME280;19843;51.040;13.782;2023-08-06T11:42:19;99031.84;;;21.69;77.20
33506;BME280;19843;51.040;13.782;2023-08-06T11:44:47;99023.31;;;21.69;77.19
33506;BME280;19843;51.040;13.782;2023-08-06T11:47:15;99028.09;;;20.81;79.90
33506;BME280;19843;51.040;13.782;2023-08-06T11:49:46;99036.09;;;20.34;81.30
33506;BME280;19843;51.040;13.782;2023-08-06T11:52:16;99029.50;;;20.57;79.80
33506;BME280;19843;51.040;13.782;2023-08-06T11:54:59;99030.91;;;21.14;78.95
33506;BME280;19843;51.040;13.782;2023-08-06T11:57:29;99027.13;;;20.35;80.06
33506;BME280;19843;51.040;13.782;2023-08-06T12:00:02;99034.56;;;20.65;79.21
33506;BME280;19843;51.040;13.782;2023-08-06T12:02:31;99033.53;;;21.21;76.90
33506;BME280;19843;51.040;13.782;2023-08-06T12:05:10;99038.63;;;20.64;75.82
33506;BME280;19843;51.040;13.782;2023-08-06T12:07:39;99039.47;;;20.45;75.74
33506;BME280;19843;51.040;13.782;2023-08-06T12:10:08;99032.00;;;20.71;76.89
33506;BME280;19843;51.040;13.782;2023-08-06T12:12:36;99025.81;;;20.24;77.54
33506;BME280;19843;51.040;13.782;2023-08-06T12:15:05;99022.03;;;21.12;76.19
33506;BME280;19843;51.040;13.782;2023-08-06T12:17:34;99019.34;;;20.76;75.27
33506;BME280;19843;51.040;13.782;2023-08-06T12:20:02;99023.91;;;19.61;79.40
33506;BME280;19843;51.040;13.782;2023-08-06T12:22:32;99025.78;;;20.60;78.22
33506;BME280;19843;51.040;13.782;2023-08-06T12:25:02;99024.31;;;20.35;79.09
33506;BME280;19843;51.040;13.782;2023-08-06T12:27:30;99026.22;;;20.75;77.21
33506;BME280;19843;51.040;13.782;2023-08-06T12:29:57;99032.59;;;21.11;77.03
33506;BME280;19843;51.040;13.782;2023-08-06T12:32:26;99027.06;;;21.20;75.90
33506;BME280;19843;51.040;13.782;2023-08-06T12:34:53;99026.50;;;20.80;77.85
33506;BME280;19843;51.040;13.782;2023-08-06T12:37:21;99016.06;;;20.41;76.92
33506;BME280;19843;51.040;13.782;2023-08-06T12:39:50;99014.94;;;20.38;77.49
33506;BME280;19843;51.040;13.782;2023-08-06T12:42:18;99009.84;;;20.66;77.95
33506;BME280;19843;51.040;13.782;2023-08-06T12:44:52;99004.19;;;21.28;75.61
33506;BME280;19843;51.040;13.782;2023-08-06T12:47:19;99007.16;;;20.91;75.70
33506;BME280;19843;51.040;13.782;2023-08-06T12:49:47;99007.72;;;20.70;74.60